createdAt,value
2018-09-24T00:00:22.012Z,1018.9
2018-09-24T00:01:23.270Z,1019.0
2018-09-24T00:02:24.864Z,1019.0
2018-09-24T00:03:26.268Z,1019.1
2018-09-24T00:04:27.751Z,1019.1
2018-09-24T00:05:29.149Z,1019.1
2018-09-24T00:06:30.622Z,1019.0
2018-09-24T00:07:32.052Z,1019.1
2018-09-24T00:08:33.713Z,1019.1
2018-09-24T00:09:35.107Z,1019.1
2018-09-24T00:10:36.590Z,1019.1
2018-09-24T00:11:37.993Z,1019.2
2018-09-24T00:12:39.389Z,1019.2
2018-09-24T00:13:40.911Z,1019.2
2018-09-24T00:14:42.313Z,1019.2
2018-09-24T00:15:43.712Z,1019.2
2018-09-24T00:16:45.256Z,1019.2
2018-09-24T00:17:46.685Z,1019.2
2018-09-24T00:18:48.316Z,1019.2
2018-09-24T00:19:49.721Z,1019.3
2018-09-24T00:20:51.202Z,1019.3
2018-09-24T00:21:52.598Z,1019.3
2018-09-24T00:22:54.044Z,1019.3
2018-09-24T00:23:55.519Z,1019.4
2018-09-24T00:24:56.967Z,1019.4
2018-09-24T00:25:58.362Z,1019.4
2018-09-24T00:26:59.859Z,1019.4
2018-09-24T00:28:01.255Z,1019.4
2018-09-24T00:29:02.722Z,1019.4
2018-09-24T00:30:04.118Z,1019.3
2018-09-24T00:31:05.602Z,1019.4
2018-09-24T00:32:07.000Z,1019.4
2018-09-24T00:33:08.497Z,1019.4
2018-09-24T00:34:09.921Z,1019.4
2018-09-24T00:35:11.500Z,1019.5
2018-09-24T00:36:12.857Z,1019.6
2018-09-24T00:37:14.249Z,1019.5
2018-09-24T00:38:15.892Z,1019.6
2018-09-24T00:39:17.288Z,1019.6
2018-09-24T00:40:18.689Z,1019.6
2018-09-24T00:41:20.212Z,1019.6
2018-09-24T00:42:21.613Z,1019.6
2018-09-24T00:43:23.107Z,1019.6
2018-09-24T00:44:24.497Z,1019.7
2018-09-24T00:45:25.977Z,1019.7
2018-09-24T00:46:27.482Z,1019.7
2018-09-24T00:47:29.058Z,1019.7
2018-09-24T00:48:30.464Z,1019.8
2018-09-24T00:49:31.953Z,1019.8
2018-09-24T00:50:33.351Z,1019.8
2018-09-24T00:51:34.781Z,1019.8
2018-09-24T00:52:36.262Z,1019.8
2018-09-24T00:53:37.661Z,1019.9
2018-09-24T00:54:39.062Z,1019.9
2018-09-24T00:55:40.589Z,1020.0
2018-09-24T00:56:41.982Z,1020.0
2018-09-24T00:57:43.399Z,1020.0
2018-09-24T00:58:44.903Z,1020.0
2018-09-24T00:59:46.305Z,1020.0
2018-09-24T01:00:48.823Z,1020.1
2018-09-24T01:01:50.237Z,1020.0
2018-09-24T01:02:51.648Z,1020.1
2018-09-24T01:03:53.133Z,1020.0
2018-09-24T01:04:54.534Z,1020.0
2018-09-24T01:05:55.997Z,1020.1
2018-09-24T01:06:57.458Z,1020.1
2018-09-24T01:07:58.879Z,1020.1
2018-09-24T01:09:00.285Z,1020.1
2018-09-24T01:10:01.775Z,1020.1
2018-09-24T01:11:03.171Z,1020.1
2018-09-24T01:12:04.579Z,1020.1
2018-09-24T01:13:06.133Z,1020.1
2018-09-24T01:14:07.536Z,1020.1
2018-09-24T01:15:08.945Z,1020.1
2018-09-24T01:16:10.419Z,1020.2
2018-09-24T01:17:11.821Z,1020.2
2018-09-24T01:18:13.226Z,1020.2
2018-09-24T01:19:14.736Z,1020.2
2018-09-24T01:20:16.142Z,1020.2
2018-09-24T01:21:17.540Z,1020.2
2018-09-24T01:22:19.084Z,1020.2
2018-09-24T01:23:20.478Z,1020.3
2018-09-24T01:24:21.888Z,1020.3
2018-09-24T01:25:23.400Z,1020.3
2018-09-24T01:26:24.887Z,1020.4
2018-09-24T01:27:26.336Z,1020.4
2018-09-24T01:28:27.904Z,1020.5
2018-09-24T01:29:29.340Z,1020.5
2018-09-24T01:30:31.507Z,1020.5
2018-09-24T01:31:32.910Z,1020.5
2018-09-24T01:32:34.303Z,1020.5
2018-09-24T01:33:35.926Z,1020.5
2018-09-24T01:34:37.324Z,1020.6
2018-09-24T01:35:38.715Z,1020.5
2018-09-24T01:36:40.249Z,1020.5
2018-09-24T01:37:41.660Z,1020.6
2018-09-24T01:38:43.065Z,1020.6
2018-09-24T01:39:44.571Z,1020.5
2018-09-24T01:40:45.983Z,1020.5
2018-09-24T01:41:47.383Z,1020.6
2018-09-24T01:42:48.897Z,1020.6
2018-09-24T01:43:50.296Z,1020.7
2018-09-24T01:44:51.717Z,1020.7
2018-09-24T01:45:53.211Z,1020.7
2018-09-24T01:46:54.610Z,1020.7
2018-09-24T01:47:56.017Z,1020.8
2018-09-24T01:48:57.532Z,1020.8
2018-09-24T01:49:58.936Z,1020.8
2018-09-24T01:51:00.332Z,1020.8
2018-09-24T01:52:01.860Z,1020.8
2018-09-24T01:53:03.255Z,1020.8
2018-09-24T01:54:04.786Z,1020.9
2018-09-24T01:55:06.189Z,1020.8
2018-09-24T01:56:07.843Z,1020.9
2018-09-24T01:57:09.658Z,1020.9
2018-09-24T01:58:11.060Z,1020.9
2018-09-24T01:59:12.554Z,1020.8
2018-09-24T02:00:13.974Z,1020.9
2018-09-24T02:01:18.424Z,1020.9
2018-09-24T02:02:20.037Z,1021.0
2018-09-24T02:03:21.448Z,1021.0
2018-09-24T02:04:23.054Z,1021.0
2018-09-24T02:05:24.455Z,1021.0
2018-09-24T02:06:26.140Z,1021.0
2018-09-24T02:07:27.544Z,1021.1
2018-09-24T02:08:28.957Z,1021.1
2018-09-24T02:09:30.438Z,1021.1
2018-09-24T02:10:31.852Z,1021.1
2018-09-24T02:11:33.248Z,1021.1
2018-09-24T02:12:34.765Z,1021.2
2018-09-24T02:13:36.169Z,1021.2
2018-09-24T02:14:37.570Z,1021.2
2018-09-24T02:15:39.079Z,1021.2
2018-09-24T02:16:40.484Z,1021.2
2018-09-24T02:17:41.883Z,1021.2
2018-09-24T02:18:43.405Z,1021.2
2018-09-24T02:19:44.811Z,1021.2
2018-09-24T02:20:46.309Z,1021.2
2018-09-24T02:21:47.703Z,1021.3
2018-09-24T02:22:49.164Z,1021.3
2018-09-24T02:23:50.561Z,1021.4
2018-09-24T02:24:52.043Z,1021.3
2018-09-24T02:25:53.445Z,1021.3
2018-09-24T02:26:54.934Z,1021.3
2018-09-24T02:27:56.328Z,1021.3
2018-09-24T02:28:57.806Z,1021.3
2018-09-24T02:29:59.209Z,1021.3
2018-09-24T02:31:00.687Z,1021.3
2018-09-24T02:32:02.085Z,1021.3
2018-09-24T02:33:03.486Z,1021.3
2018-09-24T02:34:05.000Z,1021.4
2018-09-24T02:35:06.403Z,1021.4
2018-09-24T02:36:07.813Z,1021.4
2018-09-24T02:37:09.329Z,1021.4
2018-09-24T02:38:10.727Z,1021.3
2018-09-24T02:39:12.127Z,1021.4
2018-09-24T02:40:13.656Z,1021.4
2018-09-24T02:41:15.054Z,1021.5
2018-09-24T02:42:16.458Z,1021.5
2018-09-24T02:43:17.977Z,1021.5
2018-09-24T02:44:19.375Z,1021.5
2018-09-24T02:45:20.779Z,1021.5
2018-09-24T02:46:22.297Z,1021.5
2018-09-24T02:47:23.697Z,1021.6
2018-09-24T02:48:25.096Z,1021.6
2018-09-24T02:49:26.622Z,1021.6
2018-09-24T02:50:28.025Z,1021.6
2018-09-24T02:51:29.420Z,1021.7
2018-09-24T02:52:30.938Z,1021.7
2018-09-24T02:53:32.340Z,1021.7
2018-09-24T02:54:33.744Z,1021.8
2018-09-24T02:55:35.279Z,1021.7
2018-09-24T02:56:36.713Z,1021.8
2018-09-24T02:57:38.123Z,1021.7
2018-09-24T02:58:39.591Z,1021.8
2018-09-24T02:59:40.986Z,1021.8
2018-09-24T03:00:42.465Z,1021.8
2018-09-24T03:01:43.865Z,1021.8
2018-09-24T03:02:45.339Z,1021.8
2018-09-24T03:03:46.746Z,1021.9
2018-09-24T03:04:48.234Z,1021.9
2018-09-24T03:05:49.630Z,1021.8
2018-09-24T03:06:51.109Z,1021.9
2018-09-24T03:07:52.504Z,1021.9
2018-09-24T03:08:53.983Z,1021.9
2018-09-24T03:09:55.397Z,1021.9
2018-09-24T03:10:56.864Z,1021.9
2018-09-24T03:11:58.266Z,1021.9
2018-09-24T03:12:59.745Z,1021.9
2018-09-24T03:14:01.150Z,1022.0
2018-09-24T03:15:02.635Z,1022.0
2018-09-24T03:16:04.028Z,1022.0
2018-09-24T03:17:07.380Z,1022.0
2018-09-24T03:18:08.758Z,1022.0
2018-09-24T03:19:10.231Z,1022.0
2018-09-24T03:20:11.633Z,1022.0
2018-09-24T03:21:13.115Z,1022.0
2018-09-24T03:22:14.533Z,1022.0
2018-09-24T03:23:15.997Z,1022.0
2018-09-24T03:24:17.390Z,1022.1
2018-09-24T03:25:18.811Z,1022.1
2018-09-24T03:26:20.352Z,1022.1
2018-09-24T03:27:21.712Z,1022.1
2018-09-24T03:28:23.116Z,1022.1
2018-09-24T03:29:24.638Z,1022.1
2018-09-24T03:30:26.060Z,1022.1
2018-09-24T03:31:27.511Z,1022.1
2018-09-24T03:32:28.925Z,1022.2
2018-09-24T03:33:30.397Z,1022.2
2018-09-24T03:34:31.795Z,1022.2
2018-09-24T03:35:33.287Z,1022.2
2018-09-24T03:36:34.693Z,1022.2
2018-09-24T03:37:36.166Z,1022.2
2018-09-24T03:38:37.569Z,1022.3
2018-09-24T03:39:38.973Z,1022.3
2018-09-24T03:40:40.483Z,1022.2
2018-09-24T03:41:41.971Z,1022.3
2018-09-24T03:42:43.368Z,1022.3
2018-09-24T03:43:45.015Z,1022.2
2018-09-24T03:44:46.421Z,1022.3
2018-09-24T03:45:47.890Z,1022.3
2018-09-24T03:46:49.296Z,1022.3
2018-09-24T03:47:50.881Z,1022.3
2018-09-24T03:48:52.284Z,1022.3
2018-09-24T03:49:53.675Z,1022.3
2018-09-24T03:50:55.302Z,1022.3
2018-09-24T03:51:56.720Z,1022.3
2018-09-24T03:52:58.119Z,1022.3
2018-09-24T03:53:59.623Z,1022.3
2018-09-24T03:55:01.025Z,1022.3
2018-09-24T03:56:02.428Z,1022.4
2018-09-24T03:57:03.940Z,1022.4
2018-09-24T03:58:05.343Z,1022.4
2018-09-24T03:59:06.788Z,1022.4
2018-09-24T04:00:08.260Z,1022.4
2018-09-24T04:01:09.659Z,1022.4
2018-09-24T04:02:11.142Z,1022.4
2018-09-24T04:03:12.544Z,1022.4
2018-09-24T04:04:14.022Z,1022.4
2018-09-24T04:05:15.433Z,1022.5
2018-09-24T04:06:16.903Z,1022.5
2018-09-24T04:07:18.300Z,1022.5
2018-09-24T04:08:19.783Z,1022.6
2018-09-24T04:09:21.194Z,1022.5
2018-09-24T04:10:22.583Z,1022.5
2018-09-24T04:11:24.108Z,1022.5
2018-09-24T04:12:25.568Z,1022.5
2018-09-24T04:13:27.008Z,1022.5
2018-09-24T04:14:28.631Z,1022.6
2018-09-24T04:15:30.030Z,1022.6
2018-09-24T04:16:31.510Z,1022.6
2018-09-24T04:17:32.997Z,1022.6
2018-09-24T04:18:34.599Z,1022.6
2018-09-24T04:19:36.063Z,1022.7
2018-09-24T04:20:37.476Z,1022.7
2018-09-24T04:21:38.874Z,1022.7
2018-09-24T04:22:40.298Z,1022.7
2018-09-24T04:23:41.861Z,1022.8
2018-09-24T04:24:43.218Z,1022.8
2018-09-24T04:25:44.663Z,1022.8
2018-09-24T04:26:46.120Z,1022.8
2018-09-24T04:27:47.915Z,1022.8
2018-09-24T04:28:49.318Z,1022.8
2018-09-24T04:29:50.854Z,1022.8
2018-09-24T04:30:52.251Z,1022.7
2018-09-24T04:31:53.734Z,1022.8
2018-09-24T04:32:55.154Z,1022.8
2018-09-24T04:33:56.653Z,1022.8
2018-09-24T04:34:58.050Z,1022.9
2018-09-24T04:35:59.460Z,1022.9
2018-09-24T04:37:00.935Z,1022.9
2018-09-24T04:38:02.337Z,1022.9
2018-09-24T04:39:03.732Z,1023.0
2018-09-24T04:40:05.257Z,1022.9
2018-09-24T04:41:06.772Z,1022.9
2018-09-24T04:42:08.168Z,1023.0
2018-09-24T04:43:09.785Z,1023.1
2018-09-24T04:44:11.179Z,1023.1
2018-09-24T04:45:12.587Z,1023.0
2018-09-24T04:46:14.105Z,1023.1
2018-09-24T04:47:15.509Z,1023.1
2018-09-24T04:48:16.985Z,1023.1
2018-09-24T04:49:18.450Z,1023.1
2018-09-24T04:50:19.865Z,1023.2
2018-09-24T04:51:21.268Z,1023.1
2018-09-24T04:52:22.746Z,1023.1
2018-09-24T04:53:24.156Z,1023.2
2018-09-24T04:54:25.591Z,1023.1
2018-09-24T04:55:27.070Z,1023.1
2018-09-24T04:56:28.476Z,1023.2
2018-09-24T04:57:29.872Z,1023.1
2018-09-24T04:58:31.411Z,1023.1
2018-09-24T04:59:32.795Z,1023.2
2018-09-24T05:00:34.195Z,1023.2
2018-09-24T05:01:35.709Z,1023.2
2018-09-24T05:02:37.120Z,1023.3
2018-09-24T05:03:38.594Z,1023.3
2018-09-24T05:04:39.995Z,1023.3
2018-09-24T05:05:41.472Z,1023.3
2018-09-24T05:06:42.874Z,1023.3
2018-09-24T05:07:44.348Z,1023.3
2018-09-24T05:08:45.749Z,1023.3
2018-09-24T05:09:47.154Z,1023.4
2018-09-24T05:10:48.674Z,1023.4
2018-09-24T05:11:50.074Z,1023.4
2018-09-24T05:12:51.479Z,1023.4
2018-09-24T05:13:52.999Z,1023.4
2018-09-24T05:14:54.397Z,1023.5
2018-09-24T05:15:55.799Z,1023.5
2018-09-24T05:16:57.317Z,1023.4
2018-09-24T05:17:58.751Z,1023.5
2018-09-24T05:19:00.155Z,1023.5
2018-09-24T05:20:01.645Z,1023.5
2018-09-24T05:21:03.043Z,1023.5
2018-09-24T05:22:04.520Z,1023.5
2018-09-24T05:23:06.791Z,1023.5
2018-09-24T05:24:08.425Z,1023.5
2018-09-24T05:25:09.825Z,1023.5
2018-09-24T05:26:11.307Z,1023.5
2018-09-24T05:27:12.715Z,1023.6
2018-09-24T05:28:14.190Z,1023.6
2018-09-24T05:29:15.590Z,1023.6
2018-09-24T05:30:17.066Z,1023.5
2018-09-24T05:31:19.902Z,1023.6
2018-09-24T05:32:21.399Z,1023.5
2018-09-24T05:33:22.785Z,1023.5
2018-09-24T05:34:24.302Z,1023.6
2018-09-24T05:35:25.683Z,1023.5
2018-09-24T05:36:27.084Z,1023.5
2018-09-24T05:37:28.584Z,1023.5
2018-09-24T05:38:29.990Z,1023.6
2018-09-24T05:39:31.389Z,1023.6
2018-09-24T05:40:32.871Z,1023.6
2018-09-24T05:41:34.277Z,1023.6
2018-09-24T05:42:35.676Z,1023.6
2018-09-24T05:43:37.227Z,1023.6
2018-09-24T05:44:38.632Z,1023.7
2018-09-24T05:45:40.039Z,1023.6
2018-09-24T05:46:41.590Z,1023.7
2018-09-24T05:47:42.985Z,1023.7
2018-09-24T05:48:44.404Z,1023.7
2018-09-24T05:49:45.876Z,1023.7
2018-09-24T05:50:47.277Z,1023.8
2018-09-24T05:51:48.678Z,1023.8
2018-09-24T05:52:50.197Z,1023.8
2018-09-24T05:53:51.600Z,1023.8
2018-09-24T05:54:53.002Z,1023.8
2018-09-24T05:55:54.517Z,1023.9
2018-09-24T05:56:55.918Z,1023.9
2018-09-24T05:57:57.321Z,1023.9
2018-09-24T05:58:58.842Z,1023.9
2018-09-24T06:00:00.246Z,1024.0
2018-09-24T06:01:01.660Z,1023.9
2018-09-24T06:02:03.156Z,1024.0
2018-09-24T06:03:04.560Z,1024.1
2018-09-24T06:04:06.043Z,1024.0
2018-09-24T06:05:07.450Z,1024.1
2018-09-24T06:06:08.846Z,1024.1
2018-09-24T06:07:10.359Z,1024.1
2018-09-24T06:08:11.762Z,1024.1
2018-09-24T06:09:13.164Z,1024.1
2018-09-24T06:10:14.683Z,1024.1
2018-09-24T06:11:16.089Z,1024.1
2018-09-24T06:12:17.575Z,1024.1
2018-09-24T06:13:18.969Z,1024.2
2018-09-24T06:14:20.443Z,1024.1
2018-09-24T06:15:21.844Z,1024.1
2018-09-24T06:16:23.320Z,1024.1
2018-09-24T06:17:24.726Z,1024.1
2018-09-24T06:18:26.239Z,1024.2
2018-09-24T06:19:27.643Z,1024.3
2018-09-24T06:20:29.291Z,1024.3
2018-09-24T06:21:30.694Z,1024.2
2018-09-24T06:22:32.194Z,1024.3
2018-09-24T06:23:33.594Z,1024.3
2018-09-24T06:24:35.089Z,1024.3
2018-09-24T06:25:36.453Z,1024.3
2018-09-24T06:26:37.936Z,1024.4
2018-09-24T06:27:39.338Z,1024.4
2018-09-24T06:28:40.840Z,1024.3
2018-09-24T06:29:42.227Z,1024.3
2018-09-24T06:30:43.699Z,1024.4
2018-09-24T06:31:45.107Z,1024.4
2018-09-24T06:32:46.513Z,1024.4
2018-09-24T06:33:48.014Z,1024.5
2018-09-24T06:34:49.416Z,1024.4
2018-09-24T06:35:50.818Z,1024.5
2018-09-24T06:36:52.337Z,1024.5
2018-09-24T06:37:53.749Z,1024.5
2018-09-24T06:38:55.152Z,1024.5
2018-09-24T06:39:56.659Z,1024.5
2018-09-24T06:40:58.070Z,1024.6
2018-09-24T06:41:59.470Z,1024.7
2018-09-24T06:43:00.984Z,1024.6
2018-09-24T06:44:02.384Z,1024.7
2018-09-24T06:45:03.787Z,1024.8
2018-09-24T06:46:05.308Z,1024.8
2018-09-24T06:47:06.714Z,1024.9
2018-09-24T06:48:08.185Z,1024.9
2018-09-24T06:49:09.600Z,1024.9
2018-09-24T06:50:11.066Z,1024.9
2018-09-24T06:51:12.472Z,1025.0
2018-09-24T06:52:13.881Z,1025.0
2018-09-24T06:53:15.387Z,1025.0
2018-09-24T06:54:16.794Z,1024.9
2018-09-24T06:55:18.197Z,1025.0
2018-09-24T06:56:19.709Z,1025.0
2018-09-24T06:57:21.118Z,1025.0
2018-09-24T06:58:22.591Z,1025.0
2018-09-24T06:59:23.998Z,1025.0
2018-09-24T07:00:25.473Z,1025.0
2018-09-24T07:01:26.887Z,1025.0
2018-09-24T07:02:28.353Z,1025.1
2018-09-24T07:03:29.759Z,1025.1
2018-09-24T07:04:31.235Z,1025.1
2018-09-24T07:05:32.670Z,1025.1
2018-09-24T07:06:34.115Z,1025.1
2018-09-24T07:07:35.521Z,1025.1
2018-09-24T07:08:37.002Z,1025.1
2018-09-24T07:09:38.402Z,1025.1
2018-09-24T07:10:39.874Z,1025.1
2018-09-24T07:11:41.305Z,1025.1
2018-09-24T07:12:42.712Z,1025.1
2018-09-24T07:13:44.195Z,1025.1
2018-09-24T07:14:45.601Z,1025.2
2018-09-24T07:15:47.006Z,1025.2
2018-09-24T07:16:48.553Z,1025.1
2018-09-24T07:17:49.957Z,1025.2
2018-09-24T07:18:51.385Z,1025.1
2018-09-24T07:19:52.839Z,1025.2
2018-09-24T07:20:54.246Z,1025.2
2018-09-24T07:21:55.648Z,1025.3
2018-09-24T07:22:57.161Z,1025.3
2018-09-24T07:23:58.561Z,1025.3
2018-09-24T07:24:59.966Z,1025.3
2018-09-24T07:26:01.478Z,1025.3
2018-09-24T07:27:02.882Z,1025.3
2018-09-24T07:28:04.384Z,1025.3
2018-09-24T07:29:05.811Z,1025.3
2018-09-24T07:30:07.252Z,1025.4
2018-09-24T07:31:08.672Z,1025.4
2018-09-24T07:32:10.327Z,1025.4
2018-09-24T07:33:11.859Z,1025.4
2018-09-24T07:34:13.471Z,1025.4
2018-09-24T07:35:16.259Z,1025.5
2018-09-24T07:36:17.736Z,1025.5
2018-09-24T07:37:19.219Z,1025.5
2018-09-24T07:38:20.624Z,1025.5
2018-09-24T07:39:22.412Z,1025.5
2018-09-24T07:40:24.077Z,1025.6
2018-09-24T07:41:25.865Z,1025.6
2018-09-24T07:42:27.667Z,1025.6
2018-09-24T07:43:29.449Z,1025.6
2018-09-24T07:44:31.268Z,1025.6
2018-09-24T07:45:32.946Z,1025.5
2018-09-24T07:46:34.680Z,1025.6
2018-09-24T07:47:36.456Z,1025.6
2018-09-24T07:48:38.448Z,1025.7
2018-09-24T07:49:40.184Z,1025.6
2018-09-24T07:50:41.815Z,1025.6
2018-09-24T07:51:43.273Z,1025.7
2018-09-24T07:52:44.730Z,1025.7
2018-09-24T07:53:46.354Z,1025.8
2018-09-24T07:54:47.773Z,1025.7
2018-09-24T07:55:49.256Z,1025.7
2018-09-24T07:56:50.834Z,1025.7
2018-09-24T07:57:52.250Z,1025.8
2018-09-24T07:58:53.740Z,1025.8
2018-09-24T07:59:55.159Z,1025.8
2018-09-24T08:00:56.685Z,1025.8
2018-09-24T08:01:58.076Z,1025.8
2018-09-24T08:02:59.563Z,1025.8
2018-09-24T08:04:01.391Z,1025.9
2018-09-24T08:05:02.848Z,1025.8
2018-09-24T08:06:04.288Z,1025.9
2018-09-24T08:07:06.009Z,1025.9
2018-09-24T08:08:07.439Z,1025.9
2018-09-24T08:09:08.973Z,1025.9
2018-09-24T08:10:10.406Z,1025.9
2018-09-24T08:11:12.081Z,1026.0
2018-09-24T08:12:13.498Z,1026.0
2018-09-24T08:13:15.168Z,1026.0
2018-09-24T08:14:16.579Z,1026.0
2018-09-24T08:15:18.248Z,1026.0
2018-09-24T08:16:19.791Z,1026.0
2018-09-24T08:17:21.371Z,1026.1
2018-09-24T08:18:23.343Z,1026.1
2018-09-24T08:19:24.789Z,1026.1
2018-09-24T08:20:26.440Z,1026.1
2018-09-24T08:21:27.849Z,1026.1
2018-09-24T08:22:29.274Z,1026.2
2018-09-24T08:23:30.745Z,1026.2
2018-09-24T08:24:32.157Z,1026.1
2018-09-24T08:25:33.554Z,1026.2
2018-09-24T08:26:35.076Z,1026.2
2018-09-24T08:27:36.488Z,1026.2
2018-09-24T08:28:37.890Z,1026.2
2018-09-24T08:29:39.387Z,1026.2
2018-09-24T08:30:40.797Z,1026.3
2018-09-24T08:31:42.237Z,1026.3
2018-09-24T08:32:43.710Z,1026.2
2018-09-24T08:33:45.125Z,1026.2
2018-09-24T08:34:46.616Z,1026.3
2018-09-24T08:35:48.071Z,1026.3
2018-09-24T08:36:49.815Z,1026.3
2018-09-24T08:37:51.243Z,1026.4
2018-09-24T08:38:52.684Z,1026.4
2018-09-24T08:39:54.239Z,1026.4
2018-09-24T08:40:55.656Z,1026.3
2018-09-24T08:41:57.087Z,1026.4
2018-09-24T08:42:58.563Z,1026.4
2018-09-24T08:44:00.055Z,1026.5
2018-09-24T08:45:01.425Z,1026.5
2018-09-24T08:46:03.053Z,1026.4
2018-09-24T08:47:04.523Z,1026.4
2018-09-24T08:48:05.936Z,1026.5
2018-09-24T08:49:07.690Z,1026.5
2018-09-24T08:50:09.154Z,1026.5
2018-09-24T08:51:10.585Z,1026.5
2018-09-24T08:52:12.173Z,1026.5
2018-09-24T08:53:13.651Z,1026.6
2018-09-24T08:54:15.207Z,1026.6
2018-09-24T08:55:16.741Z,1026.6
2018-09-24T08:56:18.321Z,1026.6
2018-09-24T08:57:19.859Z,1026.7
2018-09-24T08:58:21.258Z,1026.7
2018-09-24T08:59:22.853Z,1026.7
2018-09-24T09:00:24.349Z,1026.6
2018-09-24T09:01:25.921Z,1026.7
2018-09-24T09:02:27.767Z,1026.6
2018-09-24T09:03:29.431Z,1026.7
2018-09-24T09:04:31.259Z,1026.7
2018-09-24T09:05:32.911Z,1026.7
2018-09-24T09:06:34.806Z,1026.8
2018-09-24T09:07:36.334Z,1026.7
2018-09-24T09:08:37.782Z,1026.6
2018-09-24T09:09:39.314Z,1026.7
2018-09-24T09:10:40.795Z,1026.7
2018-09-24T09:11:42.264Z,1026.7
2018-09-24T09:12:43.820Z,1026.7
2018-09-24T09:13:45.299Z,1026.8
2018-09-24T09:14:46.757Z,1026.7
2018-09-24T09:15:48.331Z,1026.8
2018-09-24T09:16:49.757Z,1026.7
2018-09-24T09:17:51.228Z,1026.8
2018-09-24T09:18:52.867Z,1026.8
2018-09-24T09:19:54.329Z,1026.7
2018-09-24T09:20:55.758Z,1026.7
2018-09-24T09:21:57.388Z,1026.7
2018-09-24T09:23:00.666Z,1026.7
2018-09-24T09:24:02.174Z,1026.8
2018-09-24T09:25:03.761Z,1026.8
2018-09-24T09:26:05.222Z,1026.8
2018-09-24T09:27:06.851Z,1026.7
2018-09-24T09:28:08.291Z,1026.8
2018-09-24T09:29:09.947Z,1026.8
2018-09-24T09:30:11.380Z,1026.8
2018-09-24T09:31:12.988Z,1026.8
2018-09-24T09:32:14.425Z,1026.8
2018-09-24T09:33:15.893Z,1026.8
2018-09-24T09:34:17.335Z,1026.8
2018-09-24T09:35:19.022Z,1026.8
2018-09-24T09:36:20.365Z,1026.9
2018-09-24T09:37:21.932Z,1026.9
2018-09-24T09:38:23.346Z,1026.9
2018-09-24T09:39:24.917Z,1027.0
2018-09-24T09:40:26.318Z,1027.0
2018-09-24T09:41:27.805Z,1026.9
2018-09-24T09:42:29.227Z,1026.9
2018-09-24T09:43:30.632Z,1026.9
2018-09-24T09:44:32.124Z,1026.9
2018-09-24T09:45:33.641Z,1026.9
2018-09-24T09:46:35.055Z,1026.9
2018-09-24T09:47:36.662Z,1026.9
2018-09-24T09:48:38.074Z,1026.8
2018-09-24T09:49:39.491Z,1026.8
2018-09-24T09:50:40.999Z,1026.9
2018-09-24T09:51:42.468Z,1026.9
2018-09-24T09:52:43.948Z,1026.9
2018-09-24T09:53:45.546Z,1026.9
2018-09-24T09:54:46.974Z,1026.9
2018-09-24T09:55:48.587Z,1026.9
2018-09-24T09:56:50.004Z,1026.9
2018-09-24T09:57:51.478Z,1026.9
2018-09-24T09:58:52.884Z,1027.0
2018-09-24T09:59:54.345Z,1027.0
2018-09-24T10:00:55.773Z,1027.0
2018-09-24T10:01:57.286Z,1026.9
2018-09-24T10:02:58.692Z,1027.0
2018-09-24T10:04:00.312Z,1027.0
2018-09-24T10:05:02.111Z,1026.9
2018-09-24T10:06:03.602Z,1026.9
2018-09-24T10:07:05.014Z,1026.9
2018-09-24T10:08:06.486Z,1026.9
2018-09-24T10:09:07.903Z,1026.9
2018-09-24T10:10:09.312Z,1026.9
2018-09-24T10:11:10.822Z,1026.9
2018-09-24T10:12:12.206Z,1026.9
2018-09-24T10:13:13.614Z,1026.9
2018-09-24T10:14:15.115Z,1026.9
2018-09-24T10:15:16.549Z,1026.9
2018-09-24T10:16:18.012Z,1026.9
2018-09-24T10:17:19.420Z,1026.9
2018-09-24T10:18:20.879Z,1026.9
2018-09-24T10:19:22.294Z,1026.9
2018-09-24T10:20:23.693Z,1026.8
2018-09-24T10:21:25.210Z,1026.8
2018-09-24T10:22:26.613Z,1026.9
2018-09-24T10:23:28.022Z,1026.8
2018-09-24T10:24:30.543Z,1026.9
2018-09-24T10:25:32.006Z,1026.9
2018-09-24T10:26:33.414Z,1026.9
2018-09-24T10:27:34.867Z,1026.9
2018-09-24T10:28:36.275Z,1026.8
2018-09-24T10:29:37.686Z,1026.8
2018-09-24T10:30:39.187Z,1026.9
2018-09-24T10:31:40.599Z,1026.9
2018-09-24T10:32:42.034Z,1026.9
2018-09-24T10:33:43.565Z,1026.9
2018-09-24T10:34:44.935Z,1026.9
2018-09-24T10:35:46.401Z,1026.9
2018-09-24T10:36:47.815Z,1026.9
2018-09-24T10:37:49.273Z,1026.9
2018-09-24T10:38:50.682Z,1026.9
2018-09-24T10:39:52.152Z,1026.9
2018-09-24T10:40:53.561Z,1026.9
2018-09-24T10:41:55.036Z,1026.9
2018-09-24T10:42:56.443Z,1026.8
2018-09-24T10:43:57.916Z,1026.9
2018-09-24T10:44:59.326Z,1026.9
2018-09-24T10:46:00.818Z,1026.9
2018-09-24T10:47:02.207Z,1026.9
2018-09-24T10:48:03.675Z,1026.9
2018-09-24T10:49:05.084Z,1026.9
2018-09-24T10:50:06.496Z,1026.9
2018-09-24T10:51:08.103Z,1027.0
2018-09-24T10:52:09.509Z,1027.0
2018-09-24T10:53:10.917Z,1027.0
2018-09-24T10:54:12.529Z,1027.0
2018-09-24T10:55:13.933Z,1027.0
2018-09-24T10:56:15.518Z,1027.0
2018-09-24T10:57:16.933Z,1027.0
2018-09-24T10:58:18.485Z,1027.0
2018-09-24T10:59:19.934Z,1027.0
2018-09-24T11:00:21.366Z,1027.0
2018-09-24T11:01:22.772Z,1027.0
2018-09-24T11:02:24.258Z,1027.0
2018-09-24T11:03:25.647Z,1027.0
2018-09-24T11:04:27.124Z,1027.0
2018-09-24T11:05:28.534Z,1027.1
2018-09-24T11:06:29.940Z,1027.0
2018-09-24T11:07:31.451Z,1027.0
2018-09-24T11:08:32.859Z,1027.0
2018-09-24T11:09:34.271Z,1027.0
2018-09-24T11:10:35.775Z,1027.0
2018-09-24T11:11:37.180Z,1027.1
2018-09-24T11:12:38.656Z,1027.1
2018-09-24T11:13:40.064Z,1027.0
2018-09-24T11:14:41.499Z,1027.0
2018-09-24T11:15:43.029Z,1026.9
2018-09-24T11:16:44.573Z,1027.0
2018-09-24T11:17:46.086Z,1027.0
2018-09-24T11:18:47.295Z,1026.9
2018-09-24T11:19:48.701Z,1027.0
2018-09-24T11:20:50.104Z,1027.0
2018-09-24T11:21:52.751Z,1026.9
2018-09-24T11:22:54.191Z,1027.0
2018-09-24T11:23:55.726Z,1027.0
2018-09-24T11:24:57.158Z,1027.0
2018-09-24T11:25:58.577Z,1027.1
2018-09-24T11:27:00.062Z,1027.0
2018-09-24T11:28:01.460Z,1027.0
2018-09-24T11:29:02.874Z,1027.0
2018-09-24T11:30:04.371Z,1027.0
2018-09-24T11:31:05.782Z,1027.1
2018-09-24T11:32:07.186Z,1027.0
2018-09-24T11:33:08.790Z,1027.1
2018-09-24T11:34:10.349Z,1027.0
2018-09-24T11:35:11.776Z,1027.0
2018-09-24T11:36:13.215Z,1027.1
2018-09-24T11:37:14.624Z,1027.1
2018-09-24T11:38:16.097Z,1027.0
2018-09-24T11:39:17.514Z,1027.1
2018-09-24T11:40:18.922Z,1027.0
2018-09-24T11:41:20.427Z,1027.1
2018-09-24T11:42:21.839Z,1027.1
2018-09-24T11:43:23.255Z,1027.1
2018-09-24T11:44:24.858Z,1027.1
2018-09-24T11:45:26.264Z,1027.2
2018-09-24T11:46:27.998Z,1027.2
2018-09-24T11:47:29.417Z,1027.1
2018-09-24T11:48:30.935Z,1027.2
2018-09-24T11:49:32.351Z,1027.2
2018-09-24T11:50:34.303Z,1027.2
2018-09-24T11:51:35.714Z,1027.2
2018-09-24T11:52:37.418Z,1027.2
2018-09-24T11:53:38.830Z,1027.2
2018-09-24T11:54:40.488Z,1027.2
2018-09-24T11:55:41.969Z,1027.2
2018-09-24T11:56:43.485Z,1027.2
2018-09-24T11:57:45.313Z,1027.2
2018-09-24T11:58:46.803Z,1027.2
2018-09-24T11:59:48.256Z,1027.2
2018-09-24T12:00:50.012Z,1027.2
2018-09-24T12:01:51.473Z,1027.2
2018-09-24T12:02:53.132Z,1027.3
2018-09-24T12:03:54.618Z,1027.3
2018-09-24T12:04:56.397Z,1027.4
2018-09-24T12:05:57.949Z,1027.4
2018-09-24T12:06:59.750Z,1027.3
2018-09-24T12:08:01.282Z,1027.4
2018-09-24T12:09:02.981Z,1027.4
2018-09-24T12:10:04.485Z,1027.5
2018-09-24T12:11:06.260Z,1027.5
2018-09-24T12:12:07.721Z,1027.5
2018-09-24T12:13:09.336Z,1027.5
2018-09-24T12:14:10.882Z,1027.5
2018-09-24T12:15:12.640Z,1027.5
2018-09-24T12:16:14.176Z,1027.5
2018-09-24T12:17:15.891Z,1027.6
2018-09-24T12:18:17.372Z,1027.5
2018-09-24T12:19:18.977Z,1027.5
2018-09-24T12:20:20.462Z,1027.5
2018-09-24T12:21:22.035Z,1027.5
2018-09-24T12:22:23.507Z,1027.6
2018-09-24T12:23:25.143Z,1027.6
2018-09-24T12:24:26.584Z,1027.6
2018-09-24T12:25:28.003Z,1027.7
2018-09-24T12:26:29.689Z,1027.7
2018-09-24T12:27:31.095Z,1027.7
2018-09-24T12:28:32.529Z,1027.7
2018-09-24T12:29:34.182Z,1027.7
2018-09-24T12:30:35.643Z,1027.7
2018-09-24T12:31:37.123Z,1027.7
2018-09-24T12:32:38.811Z,1027.7
2018-09-24T12:33:40.270Z,1027.6
2018-09-24T12:34:41.777Z,1027.6
2018-09-24T12:35:43.526Z,1027.5
2018-09-24T12:36:45.009Z,1027.6
2018-09-24T12:37:46.769Z,1027.5
2018-09-24T12:38:48.269Z,1027.5
2018-09-24T12:39:49.872Z,1027.5
2018-09-24T12:40:51.352Z,1027.5
2018-09-24T12:41:52.824Z,1027.5
2018-09-24T12:42:54.632Z,1027.5
2018-09-24T12:43:56.123Z,1027.4
2018-09-24T12:44:57.583Z,1027.4
2018-09-24T12:45:59.229Z,1027.5
2018-09-24T12:47:00.707Z,1027.4